Time;durP1;ratioP1;P1;durP2;ratioP2;P2;SDS_P1;SDS_P2;PMS_P1;PMS_P2;Temp;Humidity;BMP_temperature;BMP_pressure;BME280_temperature;BME280_humidity;BME280_pressure;Samples;Min_cycle;Max_cycle;Signal;HPM_P1;HPM_P2
2023/04/03 00:00:31;;;;;;;0.57;0.57;;;;;;;21.52;29.42;101357.34;7388323;19;20021;-82
2023/04/03 00:02:57;;;;;;;2.33;0.77;;;;;;;21.44;29.79;101361.97;7390765;19;20488;-82
2023/04/03 00:05:24;;;;;;;2.38;1.42;;;;;;;21.56;29.51;101360.69;7390627;19;20018;-82
2023/04/03 00:07:50;;;;;;;0.93;0.93;;;;;;;21.57;29.39;101362.25;7392425;19;20014;-83
2023/04/03 00:10:16;;;;;;;0.45;0.45;;;;;;;21.55;29.42;101350.66;7390587;19;20022;-82
2023/04/03 00:12:42;;;;;;;0.80;0.75;;;;;;;21.52;29.67;101363.00;7396373;19;20030;-81
2023/04/03 00:15:10;;;;;;;1.02;1.02;;;;;;;21.49;29.69;101364.03;7390154;19;20019;-82
2023/04/03 00:17:36;;;;;;;0.47;0.47;;;;;;;21.36;29.94;101356.03;7390437;19;20018;-82
2023/04/03 00:20:03;;;;;;;0.57;0.57;;;;;;;21.35;29.90;101363.00;7388894;19;20026;-82
2023/04/03 00:22:30;;;;;;;0.60;0.60;;;;;;;21.34;29.63;101357.84;7392084;19;20018;-82
2023/04/03 00:24:56;;;;;;;8.07;1.05;;;;;;;21.30;29.57;101360.16;7389507;19;20081;-82
2023/04/03 00:27:22;;;;;;;0.50;0.50;;;;;;;21.42;29.72;101361.72;7391813;19;20360;-82
2023/04/03 00:29:48;;;;;;;4.38;1.23;;;;;;;21.48;29.89;101363.28;7388702;19;20031;-82
2023/04/03 00:32:14;;;;;;;2.92;0.77;;;;;;;21.41;29.87;101368.66;7393614;19;20018;-82
2023/04/03 00:34:41;;;;;;;0.45;0.45;;;;;;;21.28;29.58;101372.00;7388409;19;20011;-88
2023/04/03 00:37:07;;;;;;;0.60;0.60;;;;;;;21.14;29.70;101376.63;7389149;19;20355;-82
2023/04/03 00:39:33;;;;;;;0.60;0.60;;;;;;;21.12;29.91;101372.75;7389358;19;20070;-82
2023/04/03 00:41:59;;;;;;;4.07;1.35;;;;;;;21.04;29.88;101366.81;7395538;19;20010;-83
2023/04/03 00:44:34;;;;;;;3.60;1.10;;;;;;;20.98;29.98;101365.22;7397382;19;20018;-82
2023/04/03 00:47:04;;;;;;;0.35;0.35;;;;;;;20.94;30.04;101364.72;7396705;19;20034;-82
2023/04/03 00:49:30;;;;;;;1.13;1.13;;;;;;;21.11;29.76;101357.81;7393472;19;20074;-83
2023/04/03 00:51:58;;;;;;;0.50;0.50;;;;;;;21.03;29.87;101356.75;7398340;19;20473;-83
2023/04/03 00:54:26;;;;;;;2.75;1.13;;;;;;;20.87;30.07;101354.66;7392982;19;20476;-82
2023/04/03 00:56:55;;;;;;;0.77;0.77;;;;;;;21.01;29.50;101358.53;7393522;19;20453;-82
2023/04/03 00:59:26;;;;;;;0.40;0.40;;;;;;;20.97;29.77;101358.00;7395246;19;20021;-82
2023/04/03 01:01:55;;;;;;;1.08;0.68;;;;;;;21.14;29.52;101359.63;7396853;19;20410;-82
2023/04/03 01:04:42;;;;;;;0.50;0.50;;;;;;;21.06;29.68;101352.13;7392886;19;20010;-82
2023/04/03 01:07:10;;;;;;;0.40;0.40;;;;;;;21.00;29.68;101354.94;7400192;19;20011;-82
2023/04/03 01:09:38;;;;;;;2.15;0.55;;;;;;;20.97;29.79;101353.13;7400766;19;20014;-82
2023/04/03 01:12:24;;;;;;;10.35;1.15;;;;;;;20.72;30.00;101351.25;7401145;19;20018;-82
2023/04/03 01:14:56;;;;;;;0.43;0.43;;;;;;;20.51;30.09;101355.53;7394963;19;20014;-82
2023/04/03 01:17:36;;;;;;;0.30;0.30;;;;;;;20.53;29.74;101349.38;7392998;19;20014;-82
2023/04/03 01:20:35;;;;;;;24.75;1.63;;;;;;;20.58;29.78;101342.94;7394050;19;20023;-82
2023/04/03 01:23:10;;;;;;;0.70;0.70;;;;;;;20.27;30.20;101346.69;7392946;19;20015;-82
2023/04/03 01:25:40;;;;;;;0.63;0.63;;;;;;;19.80;30.63;101342.53;7395162;19;20042;-83
2023/04/03 01:28:08;;;;;;;0.60;0.60;;;;;;;19.37;31.12;101338.84;7395370;19;20033;-82
2023/04/03 01:30:42;;;;;;;0.40;0.30;;;;;;;11.55;38.41;101370.19;7396498;19;20011;-82
2023/04/03 01:33:08;;;;;;;0.47;0.47;;;;;;;3.31;94.20;101392.56;7394949;19;20469;-82
2023/04/03 01:35:35;;;;;;;0.65;0.65;;;;;;;1.72;100.00;101388.81;7393430;19;20464;-82
2023/04/03 01:38:01;;;;;;;0.60;0.60;;;;;;;1.11;100.00;101394.84;7392185;19;20022;-82
2023/04/03 01:40:27;;;;;;;0.28;0.28;;;;;;;0.88;100.00;101393.38;7392695;19;20019;-81
2023/04/03 01:42:53;;;;;;;1.08;1.08;;;;;;;1.00;100.00;101388.44;7392395;19;20026;-82
2023/04/03 01:45:19;;;;;;;0.50;0.50;;;;;;;0.35;100.00;101382.47;7391512;19;20579;-81
2023/04/03 01:47:46;;;;;;;0.80;0.80;;;;;;;0.16;100.00;101392.72;7396588;19;20018;-82
2023/04/03 01:50:12;;;;;;;0.40;0.40;;;;;;;0.05;100.00;101386.28;7397515;19;20023;-81
2023/04/03 01:52:38;;;;;;;3.03;0.75;;;;;;;-0.06;100.00;101386.91;7398908;19;20022;-82
2023/04/03 01:55:05;;;;;;;0.75;0.75;;;;;;;-0.13;100.00;101386.00;7392664;19;20110;-81
2023/04/03 01:57:31;;;;;;;1.85;1.05;;;;;;;0.00;100.00;101377.22;7393230;19;20019;-83
2023/04/03 01:59:58;;;;;;;1.35;0.90;;;;;;;14.32;81.64;101346.47;7391318;19;20373;-81
2023/04/03 02:02:24;;;;;;;0.70;0.70;;;;;;;17.66;50.81;101340.31;7394943;19;20018;-82
2023/04/03 02:04:51;;;;;;;0.30;0.30;;;;;;;18.77;45.10;101347.47;7395464;19;20582;-82
2023/04/03 02:07:17;;;;;;;0.82;0.82;;;;;;;19.27;42.23;101345.94;7398364;19;20585;-82
2023/04/03 02:09:44;;;;;;;5.00;1.10;;;;;;;19.61;40.69;101341.34;7399970;19;20025;-82
2023/04/03 02:12:10;;;;;;;0.90;0.90;;;;;;;19.82;39.49;101350.50;7399164;19;20380;-82
2023/04/03 02:14:36;;;;;;;0.55;0.55;;;;;;;19.96;38.70;101355.22;7393778;19;20059;-82
2023/04/03 02:17:04;;;;;;;0.68;0.68;;;;;;;19.90;38.39;101352.38;7391871;19;20025;-82
2023/04/03 02:19:31;;;;;;;0.40;0.40;;;;;;;20.14;37.68;101349.19;7390753;19;20022;-81
2023/04/03 02:21:57;;;;;;;0.47;0.47;;;;;;;20.23;36.96;101351.81;7395398;19;20718;-82
2023/04/03 02:24:23;;;;;;;0.57;0.57;;;;;;;20.30;36.55;101346.44;7391067;19;20019;-82
2023/04/03 02:26:49;;;;;;;0.80;0.80;;;;;;;20.25;36.27;101343.56;7396158;19;20015;-82
2023/04/03 02:29:16;;;;;;;0.68;0.68;;;;;;;20.20;36.02;101347.16;7392270;19;20011;-82
2023/04/03 02:31:42;;;;;;;0.30;0.30;;;;;;;20.16;35.94;101350.19;7395811;19;20028;-82
2023/04/03 02:34:08;;;;;;;0.77;0.77;;;;;;;20.36;35.67;101344.41;7394272;19;20147;-82
2023/04/03 02:36:36;;;;;;;0.88;0.88;;;;;;;20.38;35.45;101341.06;7390864;19;20038;-82
2023/04/03 02:39:05;;;;;;;7.97;1.20;;;;;;;20.17;35.15;101339.66;7390480;19;20386;-82
2023/04/03 02:41:34;;;;;;;0.47;0.47;;;;;;;20.13;35.11;101336.31;7393394;19;20010;-82
2023/04/03 02:44:03;;;;;;;0.75;0.68;;;;;;;20.00;34.60;101344.44;7390519;19;20015;-82
2023/04/03 02:46:31;;;;;;;3.60;1.17;;;;;;;19.98;35.14;101341.34;7392473;19;20113;-82
2023/04/03 02:48:58;;;;;;;0.45;0.45;;;;;;;19.89;34.90;101333.84;7393096;19;20022;-82
2023/04/03 02:51:24;;;;;;;0.43;0.43;;;;;;;19.98;34.94;101335.69;7394984;19;20019;-82
2023/04/03 02:53:52;;;;;;;1.75;1.20;;;;;;;19.98;34.76;101332.88;7392766;19;20018;-82
2023/04/03 02:56:22;;;;;;;0.60;0.60;;;;;;;19.91;34.76;101336.16;7393830;19;20054;-82
2023/04/03 02:58:48;;;;;;;2.60;1.08;;;;;;;19.88;34.86;101334.34;7389203;19;20014;-82
2023/04/03 03:01:16;;;;;;;0.50;0.50;;;;;;;19.82;34.57;101333.53;7391034;19;20015;-82
2023/04/03 03:03:42;;;;;;;7.47;1.52;;;;;;;19.73;34.60;101330.91;7390789;19;20025;-81
2023/04/03 03:06:11;;;;;;;0.40;0.40;;;;;;;19.65;34.75;101331.38;7390877;19;20011;-81
2023/04/03 03:08:40;;;;;;;0.63;0.63;;;;;;;19.58;34.56;101329.00;7392459;19;20014;-82
2023/04/03 03:11:07;;;;;;;2.67;1.98;;;;;;;19.57;34.62;101319.00;7395071;19;20041;-81
2023/04/03 03:13:33;;;;;;;0.57;0.57;;;;;;;19.34;34.52;101327.75;7392136;19;20015;-81
2023/04/03 03:16:00;;;;;;;0.60;0.60;;;;;;;19.20;34.89;101326.59;7390313;19;20032;-81
2023/04/03 03:18:26;;;;;;;2.90;1.95;;;;;;;19.59;34.59;101327.75;7390498;19;20034;-82
2023/04/03 03:20:57;;;;;;;1.05;1.05;;;;;;;19.72;34.61;101329.34;7390126;19;20482;-82
2023/04/03 03:23:25;;;;;;;1.73;1.65;;;;;;;19.82;34.03;101327.88;7390383;19;20015;-81
2023/04/03 03:26:01;;;;;;;1.98;1.08;;;;;;;19.86;33.95;101331.25;7393424;19;20019;-81
2023/04/03 03:28:27;;;;;;;0.35;0.35;;;;;;;19.87;33.97;101329.97;7393446;19;20010;-81
2023/04/03 03:30:54;;;;;;;0.40;0.40;;;;;;;19.85;33.80;101327.66;7391408;19;20007;-82
2023/04/03 03:33:21;;;;;;;1.85;1.30;;;;;;;19.90;33.56;101334.63;7390216;19;20045;-81
2023/04/03 03:35:47;;;;;;;0.65;0.65;;;;;;;19.87;33.77;101333.56;7390247;19;20487;-82
2023/04/03 03:38:13;;;;;;;1.55;0.80;;;;;;;19.82;33.57;101323.00;7389979;19;20025;-81
2023/04/03 03:40:40;;;;;;;0.40;0.40;;;;;;;19.89;33.84;101322.53;7391796;19;20037;-82
2023/04/03 03:43:06;;;;;;;5.13;0.80;;;;;;;19.92;33.85;101320.75;7389197;19;20480;-82
2023/04/03 03:45:33;;;;;;;1.20;1.20;;;;;;;19.91;33.47;101324.84;7390810;19;20014;-82
2023/04/03 03:47:59;;;;;;;1.33;1.17;;;;;;;19.95;33.33;101319.72;7391347;19;20018;-82
2023/04/03 03:50:25;;;;;;;0.60;0.60;;;;;;;20.00;33.41;101327.47;7395530;19;20015;-82
2023/04/03 03:52:51;;;;;;;0.60;0.60;;;;;;;19.99;33.54;101323.13;7395211;19;20033;-82
2023/04/03 03:55:18;;;;;;;0.85;0.85;;;;;;;19.96;33.25;101332.59;7392278;19;20039;-82
2023/04/03 03:57:47;;;;;;;11.20;1.30;;;;;;;19.92;33.62;101329.25;7387781;19;20086;-81
2023/04/03 04:00:14;;;;;;;0.88;0.88;;;;;;;19.86;33.53;101334.09;7388740;19;20006;-82
2023/04/03 04:02:48;;;;;;;4.10;0.70;;;;;;;19.86;33.39;101331.25;7393547;19;20077;-82
2023/04/03 04:05:18;;;;;;;0.82;0.82;;;;;;;19.89;33.55;101333.06;7387479;19;20038;-81
2023/04/03 04:07:44;;;;;;;0.60;0.60;;;;;;;19.97;33.01;101334.13;7389787;19;20014;-81
2023/04/03 04:10:11;;;;;;;0.50;0.50;;;;;;;19.96;33.30;101332.59;7389440;19;20007;-81
2023/04/03 04:12:37;;;;;;;0.47;0.47;;;;;;;19.90;33.24;101331.81;7394939;19;20062;-82
2023/04/03 04:15:04;;;;;;;0.90;0.90;;;;;;;19.86;33.23;101334.09;7388842;19;20025;-81
2023/04/03 04:17:30;;;;;;;0.40;0.40;;;;;;;19.79;33.00;101323.25;7389080;19;20049;-81
2023/04/03 04:19:57;;;;;;;0.70;0.43;;;;;;;19.74;32.83;101315.50;7387865;19;20488;-82
2023/04/03 04:22:24;;;;;;;0.70;0.70;;;;;;;19.67;33.31;101323.16;7392424;19;20428;-82
2023/04/03 04:24:50;;;;;;;1.65;0.85;;;;;;;19.55;33.25;101315.13;7388913;19;20029;-82
2023/04/03 04:27:16;;;;;;;0.60;0.60;;;;;;;19.46;33.35;101318.13;7389613;19;20015;-82
2023/04/03 04:29:43;;;;;;;0.77;0.77;;;;;;;19.14;33.47;101320.13;7389268;19;20706;-82
2023/04/03 04:32:09;;;;;;;0.38;0.38;;;;;;;18.91;34.03;101313.50;7391955;19;20468;-81
2023/04/03 04:34:36;;;;;;;3.63;0.77;;;;;;;18.92;33.77;101306.59;7388224;19;20019;-82
2023/04/03 04:37:02;;;;;;;0.80;0.80;;;;;;;19.10;33.86;101313.16;7389267;19;20011;-82
2023/04/03 04:39:29;;;;;;;0.32;0.32;;;;;;;19.14;33.42;101311.66;7387902;19;20421;-82
2023/04/03 04:41:57;;;;;;;0.57;0.57;;;;;;;19.08;33.45;101310.81;7390288;19;20070;-82
2023/04/03 04:44:26;;;;;;;0.57;0.57;;;;;;;19.05;33.42;101311.84;7386372;19;20021;-82
2023/04/03 04:46:53;;;;;;;1.23;0.93;;;;;;;19.02;33.66;101307.19;7388476;19;20473;-82
2023/04/03 04:49:20;;;;;;;26.00;1.58;;;;;;;19.07;33.76;101297.22;7388870;19;20035;-82
2023/04/03 04:51:46;;;;;;;0.32;0.32;;;;;;;19.06;33.80;101304.91;7391345;19;20016;-82
2023/04/03 04:54:13;;;;;;;0.65;0.65;;;;;;;19.03;33.37;101308.72;7388080;19;20010;-82
2023/04/03 04:56:40;;;;;;;1.42;1.33;;;;;;;19.03;33.79;101308.72;7391362;19;20015;-82
2023/04/03 04:59:06;;;;;;;0.90;0.50;;;;;;;18.86;34.01;101302.91;7386488;19;20010;-82
2023/04/03 05:01:33;;;;;;;0.63;0.63;;;;;;;19.02;33.35;101295.09;7388717;19;20926;-82
2023/04/03 05:04:05;;;;;;;0.60;0.60;;;;;;;18.97;33.90;101307.91;7386876;19;20134;-82
2023/04/03 05:06:31;;;;;;;0.40;0.40;;;;;;;18.99;33.91;101308.19;7388571;19;20021;-82
2023/04/03 05:08:59;;;;;;;0.43;0.43;;;;;;;18.95;33.82;101313.25;7388529;19;20830;-82
2023/04/03 05:11:26;;;;;;;0.75;0.75;;;;;;;18.98;33.51;101319.97;7390198;19;20722;-82
2023/04/03 05:13:53;;;;;;;0.77;0.77;;;;;;;19.00;33.70;101315.38;7388382;19;20034;-81
2023/04/03 05:16:21;;;;;;;1.08;1.08;;;;;;;19.25;33.41;101323.03;7386296;19;20502;-82
2023/04/03 05:18:47;;;;;;;0.50;0.50;;;;;;;19.72;33.33;101323.69;7386097;19;20014;-82
2023/04/03 05:21:18;;;;;;;0.50;0.50;;;;;;;19.76;32.67;101329.91;7387211;19;20018;-82
2023/04/03 05:23:46;;;;;;;0.40;0.40;;;;;;;19.64;32.98;101321.34;7385344;19;20014;-82
2023/04/03 05:26:12;;;;;;;0.77;0.77;;;;;;;19.62;33.22;101323.88;7391988;19;20086;-83
2023/04/03 05:28:39;;;;;;;0.70;0.70;;;;;;;19.65;33.13;101337.03;7392546;19;20010;-82
2023/04/03 05:31:06;;;;;;;0.40;0.40;;;;;;;19.59;33.05;101332.59;7396376;19;20025;-83
2023/04/03 05:33:35;;;;;;;1.08;1.08;;;;;;;19.61;33.11;101324.41;7394816;19;20018;-82
2023/04/03 05:36:04;;;;;;;1.65;1.38;;;;;;;19.59;32.97;101333.38;7394707;19;20066;-82
2023/04/03 05:38:33;;;;;;;0.60;0.60;;;;;;;19.54;33.05;101336.94;7394318;19;20373;-83
2023/04/03 05:40:59;;;;;;;0.30;0.30;;;;;;;19.55;32.97;101344.16;7396380;19;20018;-83
2023/04/03 05:43:26;;;;;;;0.63;0.63;;;;;;;19.47;32.81;101345.88;7394856;19;20495;-82
2023/04/03 05:45:52;;;;;;;0.50;0.50;;;;;;;19.48;33.13;101341.78;7392273;19;20396;-83
2023/04/03 05:48:20;;;;;;;0.68;0.68;;;;;;;19.34;33.38;101334.19;7393504;19;20017;-83
2023/04/03 05:50:47;;;;;;;0.90;0.90;;;;;;;19.32;33.09;101336.72;7396415;19;20089;-83
2023/04/03 05:53:26;;;;;;;0.60;0.60;;;;;;;19.32;32.96;101339.53;7394203;19;20489;-83
2023/04/03 05:55:53;;;;;;;1.67;0.68;;;;;;;19.36;33.16;101336.53;7395382;19;20018;-83
2023/04/03 05:58:20;;;;;;;0.40;0.40;;;;;;;19.42;33.15;101337.34;7391934;19;20023;-83
2023/04/03 06:00:48;;;;;;;0.57;0.57;;;;;;;19.32;33.14;101345.19;7391761;19;20010;-82
2023/04/03 06:03:15;;;;;;;0.60;0.60;;;;;;;19.37;33.06;101341.69;7391549;19;20003;-83
2023/04/03 06:05:42;;;;;;;0.57;0.57;;;;;;;19.42;33.36;101335.31;7390591;19;20408;-83
2023/04/03 06:08:10;;;;;;;6.85;1.25;;;;;;;19.51;33.16;101337.19;7394614;19;20029;-83
2023/04/03 06:10:36;;;;;;;0.75;0.75;;;;;;;19.50;33.43;101342.06;7394341;19;20018;-83
2023/04/03 06:13:02;;;;;;;0.77;0.77;;;;;;;19.53;33.32;101340.28;7394328;19;20374;-82
2023/04/03 06:15:28;;;;;;;0.93;0.60;;;;;;;19.64;33.28;101343.94;7391930;19;20026;-82
2023/04/03 06:17:55;;;;;;;0.40;0.40;;;;;;;19.75;33.55;101342.50;7393472;19;20022;-83
2023/04/03 06:20:22;;;;;;;0.80;0.80;;;;;;;19.73;33.35;101339.41;7393115;19;20728;-82
2023/04/03 06:22:49;;;;;;;8.07;1.20;;;;;;;19.68;33.25;101350.13;7396213;19;20018;-83
2023/04/03 06:25:17;;;;;;;8.15;1.75;;;;;;;19.94;33.70;101343.66;7392966;19;20018;-83
2023/04/03 06:27:43;;;;;;;1.65;1.30;;;;;;;20.06;33.61;101340.38;7395432;19;20025;-84
2023/04/03 06:30:10;;;;;;;0.30;0.30;;;;;;;20.05;33.55;101338.06;7394930;19;20019;-83
2023/04/03 06:32:37;;;;;;;7.13;1.65;;;;;;;20.14;33.78;101344.28;7399031;19;20014;-82
2023/04/03 06:35:05;;;;;;;0.88;0.88;;;;;;;20.37;33.57;101337.50;7391866;19;20044;-83
2023/04/03 06:37:32;;;;;;;0.80;0.80;;;;;;;20.47;33.70;101340.84;7392392;19;20015;-83
2023/04/03 06:40:00;;;;;;;0.50;0.50;;;;;;;20.56;33.87;101340.63;7391666;19;20029;-83
2023/04/03 06:42:26;;;;;;;1.08;1.08;;;;;;;20.77;33.60;101338.41;7394092;19;20014;-83
2023/04/03 06:45:00;;;;;;;0.50;0.50;;;;;;;20.63;34.54;101337.31;7390419;19;20041;-83
2023/04/03 06:47:26;;;;;;;3.20;1.85;;;;;;;21.01;34.12;101336.63;7393640;19;20037;-83
2023/04/03 06:49:52;;;;;;;2.65;2.38;;;;;;;21.27;34.58;101335.69;7393534;19;20018;-83
2023/04/03 06:52:18;;;;;;;0.30;0.30;;;;;;;21.54;34.37;101337.75;7397736;19;20371;-83
2023/04/03 06:54:44;;;;;;;0.55;0.35;;;;;;;21.92;34.34;101334.09;7392082;19;20014;-83
2023/04/03 06:57:10;;;;;;;0.75;0.73;;;;;;;22.14;34.15;101327.59;7390083;19;20507;-83
2023/04/03 06:59:37;;;;;;;3.20;1.10;;;;;;;22.20;34.09;101334.81;7391226;19;20051;-83
2023/04/03 07:02:03;;;;;;;0.80;0.80;;;;;;;22.15;34.15;101329.94;7392157;19;20011;-83
2023/04/03 07:04:29;;;;;;;3.30;0.98;;;;;;;22.33;34.15;101318.00;7392782;19;20015;-82
2023/04/03 07:06:56;;;;;;;0.63;0.63;;;;;;;22.54;34.16;101327.69;7394660;19;20041;-83
2023/04/03 07:09:22;;;;;;;6.25;1.27;;;;;;;22.56;34.09;101327.97;7393169;19;20078;-83
2023/04/03 07:11:48;;;;;;;0.43;0.43;;;;;;;22.61;34.11;101330.03;7396771;19;20373;-82
2023/04/03 07:14:14;;;;;;;1.55;0.80;;;;;;;22.52;34.41;101324.63;7390921;19;20040;-82
2023/04/03 07:16:41;;;;;;;0.55;0.55;;;;;;;22.70;34.32;101328.19;7393599;19;20073;-82
2023/04/03 07:19:08;;;;;;;0.50;0.50;;;;;;;22.88;34.13;101316.19;7390454;19;20029;-83
2023/04/03 07:21:34;;;;;;;0.17;0.17;;;;;;;23.19;33.95;101322.19;7393694;19;20373;-83
2023/04/03 07:24:01;;;;;;;0.30;0.30;;;;;;;23.30;33.51;101318.47;7391964;19;20015;-83
2023/04/03 07:26:27;;;;;;;0.15;0.15;;;;;;;23.48;33.60;101323.50;7397823;19;20555;-83
2023/04/03 07:28:54;;;;;;;0.38;0.38;;;;;;;23.54;33.52;101314.94;7393713;19;20022;-84
2023/04/03 07:31:20;;;;;;;0.40;0.40;;;;;;;23.51;33.63;101322.47;7391813;19;20022;-82
2023/04/03 07:33:46;;;;;;;0.30;0.30;;;;;;;23.60;33.43;101319.28;7390441;19;20078;-83
2023/04/03 07:36:19;;;;;;;3.25;1.10;;;;;;;23.60;33.18;101315.66;7391068;19;20579;-83
2023/04/03 07:38:45;;;;;;;0.68;0.68;;;;;;;23.67;33.09;101327.22;7389192;19;20070;-83
2023/04/03 07:41:15;;;;;;;27.10;0.82;;;;;;;23.69;33.29;101327.44;7391864;19;20015;-83
2023/04/03 07:43:42;;;;;;;1.55;1.45;;;;;;;23.83;33.29;101326.28;7389627;19;20575;-83
2023/04/03 07:46:08;;;;;;;0.63;0.63;;;;;;;24.04;32.93;101324.53;7392632;19;20022;-82
2023/04/03 07:48:35;;;;;;;1.95;0.68;;;;;;;24.12;32.88;101326.78;7392556;19;20017;-83
2023/04/03 07:51:03;;;;;;;0.40;0.40;;;;;;;24.15;32.70;101326.47;7390030;19;20041;-84
2023/04/03 07:53:30;;;;;;;0.50;0.50;;;;;;;24.23;32.55;101330.28;7392251;19;20045;-83
2023/04/03 07:55:58;;;;;;;0.32;0.32;;;;;;;24.26;32.35;101323.50;7392939;19;20018;-83
2023/04/03 07:58:25;;;;;;;0.32;0.28;;;;;;;24.15;32.14;101322.88;7390930;19;20015;-84
2023/04/03 08:00:52;;;;;;;0.50;0.50;;;;;;;24.18;31.94;101325.44;7389862;19;20369;-82
2023/04/03 08:03:18;;;;;;;0.57;0.43;;;;;;;24.19;31.50;101326.19;7390904;19;20049;-83
2023/04/03 08:05:46;;;;;;;1.20;1.10;;;;;;;24.36;31.74;101335.31;7388059;19;20022;-84
2023/04/03 08:08:16;;;;;;;0.50;0.50;;;;;;;24.60;31.87;101332.41;7389866;19;20030;-83
2023/04/03 08:10:42;;;;;;;0.50;0.50;;;;;;;24.71;31.28;101324.47;7392317;19;20030;-83
2023/04/03 08:13:09;;;;;;;1.10;0.80;;;;;;;24.58;31.26;101323.66;7391685;19;20042;-82
2023/04/03 08:15:36;;;;;;;0.40;0.40;;;;;;;24.73;31.78;101323.97;7390297;19;20014;-83
2023/04/03 08:18:03;;;;;;;0.30;0.30;;;;;;;24.79;31.36;101324.66;7388666;19;20022;-83
2023/04/03 08:20:29;;;;;;;0.50;0.50;;;;;;;24.86;31.33;101323.28;7387282;19;20021;-83
2023/04/03 08:22:55;;;;;;;1.00;0.55;;;;;;;24.93;31.11;101314.13;7389675;19;20015;-83
2023/04/03 08:25:22;;;;;;;6.50;1.38;;;;;;;24.96;30.82;101333.75;7391502;19;20018;-83
2023/04/03 08:27:48;;;;;;;0.70;0.70;;;;;;;24.89;31.03;101330.72;7390612;19;20018;-83
2023/04/03 08:30:14;;;;;;;0.22;0.22;;;;;;;24.67;30.54;101334.63;7390641;19;20014;-84
2023/04/03 08:32:44;;;;;;;0.60;0.60;;;;;;;23.94;30.89;101331.88;7392736;19;20026;-84
2023/04/03 08:35:10;;;;;;;4.60;0.50;;;;;;;23.65;31.47;101331.91;7387546;19;20348;-83
2023/04/03 08:37:38;;;;;;;0.30;0.30;;;;;;;23.70;32.09;101323.31;7388640;19;20032;-82
2023/04/03 08:40:14;;;;;;;0.68;0.68;;;;;;;23.94;31.87;101323.34;7388875;19;20019;-83
2023/04/03 08:43:12;;;;;;;0.40;0.40;;;;;;;25.13;30.62;101330.63;7393773;19;20456;-84
2023/04/03 08:45:53;;;;;;;0.35;0.35;;;;;;;25.19;30.21;101323.53;7386822;19;20366;-83
2023/04/03 08:48:25;;;;;;;;;;;;;;;25.51;30.03;101329.28;7391893;19;20019;-83
2023/04/03 08:50:56;;;;;;;0.50;0.40;;;;;;;25.41;30.16;101328.88;7393833;19;20576;-83
2023/04/03 08:53:25;;;;;;;;;;;;;;;25.65;30.31;101330.06;7391549;19;20337;-83
2023/04/03 08:55:53;;;;;;;0.50;0.50;;;;;;;25.54;30.31;101331.81;7391622;19;19915;-83
2023/04/03 08:58:23;;;;;;;0.80;0.80;;;;;;;25.81;29.68;101326.16;7389490;19;20102;-84
2023/04/03 09:01:02;;;;;;;1.10;0.47;;;;;;;25.86;29.92;101328.16;7388535;19;20081;-83
2023/04/03 09:03:31;;;;;;;0.50;0.50;;;;;;;25.81;30.05;101334.72;7392697;19;20017;-83
2023/04/03 09:06:05;;;;;;;0.40;0.35;;;;;;;25.87;29.77;101329.66;7393949;19;20375;-83
2023/04/03 09:08:43;;;;;;;4.50;1.25;;;;;;;25.81;29.70;101329.00;7397448;19;20022;-82
2023/04/03 09:11:29;;;;;;;0.52;0.52;;;;;;;25.97;29.81;101313.63;7397128;19;20011;-82
2023/04/03 09:14:07;;;;;;;0.98;0.52;;;;;;;26.27;29.33;101317.72;7397266;19;20014;-82
2023/04/03 09:16:43;;;;;;;0.40;0.40;;;;;;;26.47;29.71;101322.00;7393967;19;20214;-84
2023/04/03 09:19:29;;;;;;;1.00;0.68;;;;;;;26.46;29.24;101306.19;7393222;19;20017;-84
2023/04/03 09:22:25;;;;;;;3.60;1.45;;;;;;;26.54;29.32;101304.19;7397877;19;20073;-85
2023/04/03 09:25:16;;;;;;;1.65;0.65;;;;;;;26.73;28.89;101306.91;7394071;19;20018;-84
2023/04/03 09:27:43;;;;;;;0.55;0.55;;;;;;;26.62;29.12;101302.19;7394757;19;20016;-85
2023/04/03 09:30:18;;;;;;;12.00;0.68;;;;;;;26.67;28.66;101304.16;7394578;19;20036;-82
2023/04/03 09:32:47;;;;;;;0.80;0.80;;;;;;;26.69;28.29;101307.22;7396275;19;20042;-82
2023/04/03 09:35:48;;;;;;;0.88;0.52;;;;;;;26.53;28.45;101305.50;7392317;19;20078;-81
2023/04/03 09:38:18;;;;;;;1.02;0.95;;;;;;;26.60;28.96;101299.09;7392081;19;20070;-81
2023/04/03 09:40:48;;;;;;;0.50;0.50;;;;;;;26.54;29.09;101294.84;7391607;19;20050;-81
2023/04/03 09:43:17;;;;;;;12.27;0.60;;;;;;;26.50;28.73;101300.13;7391519;19;20579;-82
2023/04/03 09:45:45;;;;;;;0.43;0.43;;;;;;;26.76;29.07;101297.22;7392704;19;20011;-82
2023/04/03 09:48:15;;;;;;;0.75;0.52;;;;;;;27.07;28.80;101301.19;7393905;19;20018;-82
2023/04/03 09:50:56;;;;;;;0.50;0.50;;;;;;;27.27;28.53;101291.84;7397468;19;20022;-82
2023/04/03 09:53:48;;;;;;;3.22;1.23;;;;;;;27.68;28.54;101289.75;7395095;19;20022;-82
2023/04/03 09:56:17;;;;;;;0.40;0.40;;;;;;;28.04;28.21;101286.97;7394496;19;20015;-81
2023/04/03 09:58:49;;;;;;;4.57;0.60;;;;;;;28.10;28.10;101287.56;7395197;19;20039;-82
2023/04/03 10:01:34;;;;;;;0.55;0.55;;;;;;;27.99;27.65;101299.34;7394943;19;20467;-81
2023/04/03 10:04:03;;;;;;;0.77;0.55;;;;;;;28.26;27.37;101294.16;7394644;19;20037;-82
2023/04/03 10:06:32;;;;;;;0.52;0.52;;;;;;;28.07;27.15;101294.41;7394135;19;20045;-82
2023/04/03 10:09:17;;;;;;;0.45;0.45;;;;;;;28.10;27.18;101293.31;7394008;19;20021;-81
2023/04/03 10:12:01;;;;;;;0.70;0.70;;;;;;;28.37;27.41;101297.44;7397590;19;20021;-81
2023/04/03 10:14:29;;;;;;;0.30;0.30;;;;;;;28.04;27.02;101295.56;7392092;19;20039;-82
2023/04/03 10:17:11;;;;;;;0.82;0.82;;;;;;;27.79;27.07;101291.53;7391651;19;20021;-81
2023/04/03 10:20:03;;;;;;;0.20;0.20;;;;;;;28.11;27.36;101294.81;7393195;19;20014;-81
2023/04/03 10:22:29;;;;;;;0.73;0.73;;;;;;;28.20;27.69;101294.28;7390427;19;20015;-82
2023/04/03 10:25:02;;;;;;;0.22;0.22;;;;;;;28.45;27.90;101289.66;7392428;19;20017;-81
2023/04/03 10:27:55;;;;;;;0.88;0.47;;;;;;;28.47;27.61;101287.00;7393474;19;20029;-82
2023/04/03 10:30:50;;;;;;;0.40;0.40;;;;;;;28.18;27.17;101288.38;7395002;19;20503;-83
2023/04/03 10:33:45;;;;;;;0.30;0.30;;;;;;;27.69;27.00;101288.41;7391396;19;20023;-83
2023/04/03 10:36:27;;;;;;;0.80;0.80;;;;;;;27.61;27.73;101283.97;7391989;19;20353;-83
2023/04/03 10:39:32;;;;;;;2.80;0.98;;;;;;;27.85;27.06;101272.13;7392523;19;20019;-83
2023/04/03 10:42:13;;;;;;;0.38;0.38;;;;;;;28.30;27.65;101281.00;7393313;19;20023;-83
2023/04/03 10:44:52;;;;;;;0.73;0.47;;;;;;;28.71;27.00;101276.38;7390373;19;20138;-83
2023/04/03 10:47:24;;;;;;;0.40;0.40;;;;;;;28.99;26.85;101264.78;7393828;19;20028;-83
2023/04/03 10:50:22;;;;;;;1.38;0.75;;;;;;;28.91;26.82;101270.50;7393846;19;20389;-83
2023/04/03 10:52:57;;;;;;;2.60;0.65;;;;;;;29.12;26.97;101276.09;7395434;19;20074;-83
2023/04/03 10:55:32;;;;;;;1.92;0.75;;;;;;;28.96;26.52;101280.28;7393658;19;20031;-82
2023/04/03 10:58:01;;;;;;;0.20;0.20;;;;;;;28.82;26.87;101276.03;7389410;19;20015;-82
2023/04/03 11:00:43;;;;;;;0.50;0.22;;;;;;;28.59;26.60;101270.22;7391394;19;20500;-83
2023/04/03 11:03:29;;;;;;;0.25;0.25;;;;;;;28.34;26.70;101272.78;7390020;19;20022;-82
2023/04/03 11:06:23;;;;;;;0.88;0.60;;;;;;;28.31;26.69;101268.19;7394726;19;20010;-89
2023/04/03 13:59:16;;;;;;;1.90;0.93;;;;;;;30.61;24.86;101106.78;7394710;19;20023;-85
2023/04/03 14:05:31;;;;;;;0.63;0.32;;;;;;;30.62;24.50;101096.06;7392856;19;20053;-94
2023/04/03 14:11:17;;;;;;;0.68;0.63;;;;;;;30.77;24.51;101101.69;7395459;19;20027;-95
2023/04/03 14:13:50;;;;;;;1.05;0.40;;;;;;;30.58;24.52;101090.69;7407438;19;20018;-96
2023/04/03 14:16:27;;;;;;;1.17;0.52;;;;;;;30.52;25.26;101087.28;7405881;19;20094;-96
2023/04/03 14:18:56;;;;;;;2.13;0.30;;;;;;;30.69;24.91;101089.44;7400590;19;20033;-95
2023/04/03 14:21:23;;;;;;;1.63;0.32;;;;;;;30.72;24.70;101085.41;7399202;19;20014;-94
2023/04/03 14:23:50;;;;;;;1.45;0.63;;;;;;;30.68;24.54;101093.69;7398232;19;20071;-95
2023/04/03 14:26:23;;;;;;;3.50;1.00;;;;;;;30.60;24.56;101075.75;7409071;19;20070;-94
2023/04/03 14:28:52;;;;;;;0.90;0.63;;;;;;;30.53;24.71;101076.56;7400568;19;20022;-94
2023/04/03 14:31:18;;;;;;;3.50;1.70;;;;;;;30.47;24.94;101078.91;7411001;19;20018;-93
2023/04/03 14:33:45;;;;;;;0.95;0.60;;;;;;;30.58;24.75;101072.69;7418111;19;20006;-95